Time;durP1;ratioP1;P1;durP2;ratioP2;P2;SDS_P1;SDS_P2;PMS_P1;PMS_P2;Temp;Humidity;BMP_temperature;BMP_pressure;BME280_temperature;BME280_humidity;BME280_pressure;Samples;Min_cycle;Max_cycle;Signal;HPM_P1;HPM_P2
2023/06/13 00:02:12;;;;;;;6.07;4.60;;;;;;;;;;5111865;28;20024;-75
2023/06/13 00:04:43;;;;;;;6.80;4.00;;;;;;;;;;5110980;28;20368;-75
2023/06/13 00:07:09;;;;;;;7.10;5.22;;;;;;;;;;5105152;28;20384;-75
2023/06/13 00:09:35;;;;;;;7.05;4.05;;;;;;;;;;5105116;28;20035;-72
2023/06/13 00:12:02;;;;;;;5.20;4.20;;;;;;;;;;5111643;28;20107;-77
2023/06/13 00:14:28;;;;;;;5.07;4.10;;;;;;;;;;5111141;28;20036;-76
2023/06/13 00:16:54;;;;;;;6.28;4.45;;;;;;;;;;5105848;28;20020;-76
2023/06/13 00:19:23;;;;;;;6.55;4.70;;;;;;;;;;5111206;28;20035;-76
2023/06/13 00:21:50;;;;;;;7.22;4.38;;;;;;;;;;5110903;28;20024;-75
2023/06/13 00:24:16;;;;;;;6.13;4.43;;;;;;;;;;5105663;28;20024;-76
2023/06/13 00:26:42;;;;;;;7.88;4.18;;;;;;;;;;5100578;28;20034;-75
2023/06/13 00:29:08;;;;;;;5.38;4.20;;;;;;;;;;5104982;28;20028;-76
2023/06/13 00:31:34;;;;;;;4.38;3.88;;;;;;;;;;5100279;28;20085;-73
2023/06/13 00:34:00;;;;;;;5.68;4.25;;;;;;;;;;5104220;28;20035;-75
2023/06/13 00:36:33;;;;;;;7.00;4.63;;;;;;;;;;5110763;28;20036;-74
2023/06/13 00:38:59;;;;;;;5.13;4.32;;;;;;;;;;5105900;28;20115;-75
2023/06/13 00:41:25;;;;;;;5.82;4.18;;;;;;;;;;5107373;28;20055;-75
2023/06/13 00:43:52;;;;;;;5.57;4.32;;;;;;;;;;5106206;28;20032;-78
2023/06/13 00:46:20;;;;;;;4.68;4.18;;;;;;;;;;5104149;28;20048;-75
2023/06/13 00:48:47;;;;;;;6.72;4.43;;;;;;;;;;5110564;28;20097;-75
2023/06/13 00:51:14;;;;;;;7.00;4.47;;;;;;;;;;5110050;28;20103;-74
2023/06/13 00:53:40;;;;;;;6.18;4.10;;;;;;;;;;5109701;28;20032;-73
2023/06/13 00:56:07;;;;;;;7.88;4.88;;;;;;;;;;5118778;28;20030;-74
2023/06/13 00:58:33;;;;;;;6.50;3.88;;;;;;;;;;5117762;28;20020;-72
2023/06/13 01:01:02;;;;;;;6.70;4.20;;;;;;;;;;5109485;28;20019;-74
2023/06/13 01:03:29;;;;;;;6.40;4.18;;;;;;;;;;5108316;28;20036;-75
2023/06/13 01:05:56;;;;;;;5.70;4.28;;;;;;;;;;5117095;28;20223;-76
2023/06/13 01:08:23;;;;;;;5.18;4.22;;;;;;;;;;5118656;28;20027;-76
2023/06/13 01:11:12;;;;;;;5.43;4.40;;;;;;;;;;5115522;28;20057;-76
2023/06/13 01:13:47;;;;;;;5.10;4.10;;;;;;;;;;5116252;28;20136;-76
2023/06/13 01:16:35;;;;;;;7.10;4.10;;;;;;;;;;5117965;28;20397;-73
2023/06/13 01:19:03;;;;;;;5.63;4.70;;;;;;;;;;5116760;28;20032;-71
2023/06/13 01:21:31;;;;;;;7.38;4.35;;;;;;;;;;5109382;28;20043;-74
2023/06/13 01:24:12;;;;;;;6.55;4.28;;;;;;;;;;5108920;28;20039;-74
2023/06/13 01:26:44;;;;;;;9.38;4.80;;;;;;;;;;5109826;28;20011;-73
2023/06/13 01:29:10;;;;;;;6.82;4.32;;;;;;;;;;5112038;28;20032;-74
2023/06/13 01:31:37;;;;;;;6.80;3.63;;;;;;;;;;5112043;28;20043;-75
2023/06/13 01:34:03;;;;;;;5.68;3.90;;;;;;;;;;5111059;28;20063;-76
2023/06/13 01:36:29;;;;;;;8.30;4.13;;;;;;;;;;5108675;28;20460;-74
2023/06/13 01:38:55;;;;;;;5.18;3.70;;;;;;;;;;5090991;28;20035;-73
2023/06/13 01:41:21;;;;;;;6.93;4.03;;;;;;;;;;5104264;28;20024;-72
2023/06/13 01:43:47;;;;;;;6.72;4.07;;;;;;;;;;5107725;28;20549;-74
2023/06/13 01:46:13;;;;;;;8.52;3.97;;;;;;;;;;5109998;27;20076;-72
2023/06/13 01:48:45;;;;;;;5.70;4.10;;;;;;;;;;5107505;28;20099;-72
2023/06/13 01:51:35;;;;;;;8.27;4.40;;;;;;;;;;5110824;28;20016;-73
2023/06/13 01:54:07;;;;;;;9.20;4.47;;;;;;;;;;5094566;28;20047;-76
2023/06/13 01:56:33;;;;;;;5.15;3.60;;;;;;;;;;5106003;27;20084;-70
2023/06/13 01:59:00;;;;;;;6.25;3.75;;;;;;;;;;5111652;28;20039;-74
2023/06/13 02:01:27;;;;;;;9.15;4.22;;;;;;;;;;5112554;28;20012;-75
2023/06/13 02:03:54;;;;;;;7.13;4.07;;;;;;;;;;5105741;28;20035;-73
2023/06/13 02:06:20;;;;;;;9.05;4.68;;;;;;;;;;5109439;28;20091;-75
2023/06/13 02:08:46;;;;;;;6.97;4.50;;;;;;;;;;5110735;28;20024;-76
2023/06/13 02:11:12;;;;;;;4.47;3.42;;;;;;;;;;5101668;28;20028;-75
2023/06/13 02:13:38;;;;;;;4.43;3.80;;;;;;;;;;5113303;28;20039;-73
2023/06/13 02:16:04;;;;;;;4.60;3.70;;;;;;;;;;5113846;28;20043;-74
2023/06/13 02:18:31;;;;;;;7.25;3.90;;;;;;;;;;5114252;28;20062;-74
2023/06/13 02:20:57;;;;;;;5.40;3.90;;;;;;;;;;5104545;28;20107;-73
2023/06/13 02:23:25;;;;;;;8.27;3.63;;;;;;;;;;5114078;28;20028;-73
2023/06/13 02:25:52;;;;;;;9.02;3.95;;;;;;;;;;5104844;28;20508;-74
2023/06/13 02:28:18;;;;;;;7.15;4.32;;;;;;;;;;5114246;28;20024;-75
2023/06/13 02:30:45;;;;;;;8.43;4.10;;;;;;;;;;5111369;28;20098;-74
2023/06/13 02:33:13;;;;;;;6.50;3.90;;;;;;;;;;5106423;28;20041;-75
2023/06/13 02:35:39;;;;;;;10.73;3.80;;;;;;;;;;5112516;28;20148;-75
2023/06/13 02:38:06;;;;;;;6.82;3.50;;;;;;;;;;5112619;28;20041;-74
2023/06/13 02:40:33;;;;;;;6.10;4.05;;;;;;;;;;5108942;28;20035;-70
2023/06/13 02:42:59;;;;;;;6.50;3.22;;;;;;;;;;5113410;28;20058;-74
2023/06/13 02:45:25;;;;;;;10.25;4.38;;;;;;;;;;5113008;28;20050;-76
2023/06/13 02:47:52;;;;;;;6.50;3.70;;;;;;;;;;5112585;28;20066;-74
2023/06/13 02:50:18;;;;;;;5.10;3.22;;;;;;;;;;5108183;28;20071;-74
2023/06/13 02:52:44;;;;;;;6.43;3.58;;;;;;;;;;5112871;28;20027;-73
2023/06/13 02:55:10;;;;;;;6.78;3.88;;;;;;;;;;5094512;28;20457;-73
2023/06/13 02:57:41;;;;;;;7.03;3.60;;;;;;;;;;5112245;28;20023;-72
2023/06/13 03:00:17;;;;;;;6.65;3.60;;;;;;;;;;5112961;28;20042;-74
2023/06/13 03:02:46;;;;;;;7.15;3.20;;;;;;;;;;5105186;28;20056;-73
2023/06/13 03:05:17;;;;;;;4.68;2.90;;;;;;;;;;5113141;28;20038;-74
2023/06/13 03:07:46;;;;;;;3.92;3.28;;;16.00;99.90;;;;;;5107376;28;20034;-73
2023/06/13 03:10:13;;;;;;;11.43;4.07;;;16.00;98.90;;;;;;5110433;28;20043;-73
2023/06/13 03:12:39;;;;;;;7.13;3.72;;;16.00;98.80;;;;;;5112614;28;20039;-74
2023/06/13 03:15:06;;;;;;;5.22;3.13;;;16.00;98.60;;;;;;5112816;28;20046;-74
2023/06/13 03:17:33;;;;;;;4.53;3.42;;;15.90;98.70;;;;;;5111713;28;20516;-70
2023/06/13 03:19:59;;;;;;;7.25;3.45;;;15.90;98.70;;;;;;5107184;28;20050;-73
2023/06/13 03:22:24;;;;;;;6.43;3.50;;;15.80;98.70;;;;;;5110002;28;20027;-76
2023/06/13 03:24:50;;;;;;;5.32;3.17;;;15.80;96.70;;;;;;5111617;28;20036;-76
2023/06/13 03:27:16;;;;;;;8.40;3.45;;;15.80;96.00;;;;;;5112991;28;20024;-74
2023/06/13 03:29:42;;;;;;;3.50;3.20;;;15.80;96.20;;;;;;5107485;28;20400;-74
2023/06/13 03:32:09;;;;;;;5.10;3.40;;;15.70;96.20;;;;;;5112697;28;20030;-75
2023/06/13 03:34:37;;;;;;;6.32;3.63;;;15.70;96.10;;;;;;5112058;28;20036;-69
2023/06/13 03:37:07;;;;;;;6.57;3.28;;;15.70;96.10;;;;;;5106486;28;20035;-74
2023/06/13 03:39:33;;;;;;;4.05;3.03;;;15.70;96.00;;;;;;5104406;28;20024;-71
2023/06/13 03:41:59;;;;;;;6.05;3.08;;;15.60;96.00;;;;;;5112251;28;20036;-74
2023/06/13 03:44:25;;;;;;;7.47;3.20;;;15.60;95.20;;;;;;5112167;28;20119;-73
2023/06/13 03:46:51;;;;;;;8.48;3.55;;;15.70;95.10;;;;;;5111071;28;20115;-74
2023/06/13 03:49:18;;;;;;;5.03;3.65;;;15.60;95.00;;;;;;5112325;28;20042;-73
2023/06/13 03:51:44;;;;;;;8.95;3.42;;;15.70;95.00;;;;;;5103846;28;20055;-73
2023/06/13 03:54:10;;;;;;;6.43;3.13;;;15.70;95.00;;;;;;5112228;28;20079;-74
2023/06/13 03:56:35;;;;;;;6.72;3.20;;;15.70;94.80;;;;;;5111500;28;20035;-71
2023/06/13 03:59:01;;;;;;;5.10;3.05;;;15.70;94.80;;;;;;5107376;28;20084;-74
2023/06/13 04:01:28;;;;;;;5.25;3.20;;;15.70;94.70;;;;;;5111067;28;20031;-76
2023/06/13 04:03:54;;;;;;;6.43;2.78;;;15.70;94.80;;;;;;5110843;28;20031;-75
2023/06/13 04:06:19;;;;;;;6.47;3.22;;;15.70;94.80;;;;;;5112426;28;20028;-75
2023/06/13 04:08:45;;;;;;;3.90;3.17;;;15.70;94.90;;;;;;5110893;28;20023;-75
2023/06/13 04:11:11;;;;;;;3.50;2.80;;;15.70;95.00;;;;;;5098971;28;20038;-75
2023/06/13 04:13:37;;;;;;;5.53;3.15;;;15.70;95.10;;;;;;5109098;28;20087;-70
2023/06/13 04:16:02;;;;;;;3.92;3.25;;;15.80;95.00;;;;;;5107124;28;20084;-74
2023/06/13 04:18:29;;;;;;;5.88;3.22;;;15.70;95.00;;;;;;5108213;28;20027;-73
2023/06/13 04:20:55;;;;;;;5.25;2.97;;;15.80;95.00;;;;;;5106890;28;20028;-74
2023/06/13 04:23:21;;;;;;;5.35;3.15;;;15.80;95.10;;;;;;5101147;28;20446;-76
2023/06/13 04:25:47;;;;;;;6.10;3.30;;;15.80;95.00;;;;;;5106913;28;20454;-76
2023/06/13 04:28:13;;;;;;;4.82;3.17;;;15.80;95.00;;;;;;5097915;28;20358;-76
2023/06/13 04:30:40;;;;;;;5.43;3.38;;;15.80;95.00;;;;;;5103612;28;20023;-75
2023/06/13 04:33:14;;;;;;;10.23;2.78;;;15.90;94.70;;;;;;5105083;28;20027;-76
2023/06/13 04:35:44;;;;;;;5.32;2.92;;;15.90;94.80;;;;;;5099921;28;20447;-76
2023/06/13 04:38:14;;;;;;;9.05;3.22;;;16.00;94.60;;;;;;5105295;28;20357;-76
2023/06/13 04:40:40;;;;;;;4.80;2.97;;;16.00;94.60;;;;;;5105734;28;20035;-76
2023/06/13 04:43:05;;;;;;;7.35;3.10;;;16.00;94.60;;;;;;5107388;28;20031;-74
2023/06/13 04:45:35;;;;;;;5.72;3.10;;;16.20;94.50;;;;;;5105453;28;20036;-76
2023/06/13 04:48:04;;;;;;;;;;;16.30;94.20;;;;;;5106870;28;20066;-76
2023/06/13 04:50:31;;;;;;;5.28;3.08;;;16.40;94.00;;;;;;5111045;28;19915;-75
2023/06/13 04:52:57;;;;;;;6.32;3.35;;;16.40;93.80;;;;;;5110924;28;20043;-76
2023/06/13 04:55:25;;;;;;;5.35;3.05;;;16.50;93.80;;;;;;5111014;28;20032;-75
2023/06/13 04:57:51;;;;;;;5.53;3.53;;;16.50;93.60;;;;;;5110856;28;20376;-76
2023/06/13 05:00:18;;;;;;;9.65;3.05;;;16.60;93.80;;;;;;5106118;28;20030;-76
2023/06/13 05:02:45;;;;;;;6.43;3.28;;;16.70;93.10;;;;;;5100510;28;20050;-75
2023/06/13 05:05:11;;;;;;;5.05;3.25;;;16.70;93.30;;;;;;5111590;28;20031;-74
2023/06/13 05:07:39;;;;;;;7.78;3.20;;;16.70;93.30;;;;;;5110197;28;20034;-70
2023/06/13 05:10:05;;;;;;;4.43;2.65;;;16.80;92.90;;;;;;5109285;28;20031;-74
2023/06/13 05:12:30;;;;;;;6.03;2.67;;;16.90;92.90;;;;;;5110011;28;20027;-75
2023/06/13 05:14:56;;;;;;;4.80;2.70;;;16.90;92.90;;;;;;5109912;28;20062;-75
2023/06/13 05:17:22;;;;;;;5.97;3.05;;;17.00;92.50;;;;;;5109947;28;20031;-74
2023/06/13 05:19:48;;;;;;;7.18;3.35;;;17.00;92.90;;;;;;5094276;28;20028;-74
2023/06/13 05:22:15;;;;;;;5.63;2.97;;;17.10;92.40;;;;;;5103958;28;20085;-72
2023/06/13 05:24:41;;;;;;;3.75;2.65;;;17.10;92.30;;;;;;5109844;28;20031;-74
2023/06/13 05:27:07;;;;;;;5.53;2.85;;;17.30;91.70;;;;;;5110953;28;20474;-73
2023/06/13 05:29:33;;;;;;;7.95;3.08;;;17.30;91.40;;;;;;5098979;28;20026;-79
2023/06/13 05:31:58;;;;;;;7.22;2.50;;;17.40;91.30;;;;;;5103975;28;20099;-72
2023/06/13 05:34:24;;;;;;;5.45;2.80;;;17.40;90.90;;;;;;5110510;28;20043;-72
2023/06/13 05:36:50;;;;;;;6.45;3.00;;;17.40;90.70;;;;;;5110496;28;20028;-72
2023/06/13 05:39:15;;;;;;;5.85;2.90;;;17.40;91.00;;;;;;5105180;28;20447;-72
2023/06/13 05:41:41;;;;;;;5.85;2.92;;;17.50;90.30;;;;;;5113253;28;20054;-72
2023/06/13 05:44:08;;;;;;;7.35;2.95;;;17.50;90.50;;;;;;5114657;28;20081;-72
2023/06/13 05:46:33;;;;;;;5.15;2.72;;;17.60;90.30;;;;;;5113673;28;20044;-84
2023/06/13 05:48:59;;;;;;;4.05;2.70;;;17.80;90.00;;;;;;5113865;28;20542;-74
2023/06/13 05:51:25;;;;;;;4.55;2.63;;;17.80;88.80;;;;;;5115210;28;20349;-75
2023/06/13 05:53:50;;;;;;;3.65;2.75;;;17.80;88.20;;;;;;5107803;28;20020;-75
2023/06/13 05:56:16;;;;;;;5.38;3.03;;;17.80;88.10;;;;;;5114851;28;20028;-76
2023/06/13 05:58:43;;;;;;;5.88;2.28;;;17.80;88.50;;;;;;5113249;28;20440;-74
2023/06/13 06:01:10;;;;;;;3.22;2.60;;;17.90;88.10;;;;;;5114264;28;20037;-76
2023/06/13 06:03:36;;;;;;;5.60;2.67;;;17.90;88.00;;;;;;5113845;28;20031;-80
2023/06/13 06:06:02;;;;;;;5.43;2.55;;;18.00;87.30;;;;;;5114720;28;20032;-74
2023/06/13 06:08:28;;;;;;;3.72;2.70;;;18.00;86.90;;;;;;5113907;28;20031;-76
2023/06/13 06:10:54;;;;;;;7.60;3.08;;;18.00;86.80;;;;;;5098575;28;20636;-74
2023/06/13 06:13:19;;;;;;;8.82;2.63;;;18.10;87.00;;;;;;5114775;28;20027;-74
2023/06/13 06:15:45;;;;;;;3.95;2.88;;;18.10;86.00;;;;;;5106656;28;20528;-74
2023/06/13 06:18:11;;;;;;;3.47;2.78;;;18.10;86.70;;;;;;5098191;28;20038;-73
2023/06/13 06:20:36;;;;;;;7.22;3.42;;;18.20;87.00;;;;;;5111865;28;20031;-74
2023/06/13 06:23:02;;;;;;;3.38;2.88;;;18.30;86.40;;;;;;5105866;28;20077;-73
2023/06/13 06:25:27;;;;;;;5.85;2.67;;;18.40;86.00;;;;;;5111677;28;20024;-75
2023/06/13 06:27:55;;;;;;;8.20;3.40;;;18.50;84.80;;;;;;5111277;28;20027;-74
2023/06/13 06:30:20;;;;;;;3.97;2.40;;;18.50;85.20;;;;;;5111575;28;20071;-73
2023/06/13 06:32:47;;;;;;;7.53;2.65;;;18.50;84.80;;;;;;5102412;28;20074;-76
2023/06/13 06:35:14;;;;;;;4.15;3.03;;;18.60;85.20;;;;;;5100694;28;20050;-74
2023/06/13 06:37:40;;;;;;;8.68;2.88;;;18.80;84.40;;;;;;5100916;28;20060;-75
2023/06/13 06:40:06;;;;;;;5.15;2.63;;;18.80;84.00;;;;;;5108000;28;20456;-74
2023/06/13 06:42:32;;;;;;;6.32;2.70;;;18.90;84.20;;;;;;5112200;28;20028;-73
2023/06/13 06:54:08;;;;;;;5.28;3.05;;;19.20;82.50;;;;;;5307951;23;20033;-74
2023/06/13 06:56:34;;;;;;;4.32;2.40;;;19.30;82.30;;;;;;4933810;29;20047;-74
2023/06/13 06:58:59;;;;;;;4.65;3.03;;;19.50;81.30;;;;;;4946626;29;20034;-76
2023/06/13 07:01:25;;;;;;;6.22;2.88;;;19.50;81.30;;;;;;4930746;29;20036;-74
2023/06/13 07:03:51;;;;;;;6.15;2.90;;;19.50;81.50;;;;;;4952719;29;20138;-73
2023/06/13 07:06:16;;;;;;;4.55;3.10;;;19.60;80.60;;;;;;4952519;29;20062;-73
2023/06/13 07:08:42;;;;;;;5.47;2.90;;;19.60;80.40;;;;;;4941059;29;20027;-72
2023/06/13 07:11:08;;;;;;;7.32;2.97;;;19.60;81.00;;;;;;4952206;29;20487;-75
2023/06/13 07:13:33;;;;;;;9.07;3.35;;;19.60;80.60;;;;;;4950144;29;20051;-73
2023/06/13 07:16:00;;;;;;;4.28;2.90;;;19.50;80.10;;;;;;4946711;29;20039;-75
2023/06/13 07:18:26;;;;;;;6.10;3.15;;;19.50;81.00;;;;;;4947015;29;20050;-73
2023/06/13 07:20:51;;;;;;;12.52;2.90;;;19.70;79.50;;;;;;4952675;29;20030;-72
2023/06/13 07:23:17;;;;;;;7.57;2.55;;;19.80;79.40;;;;;;4952792;29;20622;-72
2023/06/13 07:25:43;;;;;;;6.45;3.05;;;19.80;79.30;;;;;;4952967;29;20162;-73
2023/06/13 07:28:10;;;;;;;8.70;2.53;;;19.90;79.40;;;;;;4953049;29;20023;-73
2023/06/13 07:30:36;;;;;;;6.45;3.25;;;20.00;79.30;;;;;;4948708;29;20024;-72
2023/06/13 07:33:02;;;;;;;6.82;3.15;;;20.10;78.70;;;;;;4952981;29;20384;-75
2023/06/13 07:35:27;;;;;;;11.88;3.75;;;20.20;78.50;;;;;;4952581;29;20042;-72
2023/06/13 07:37:53;;;;;;;13.52;3.72;;;20.20;79.00;;;;;;4952126;29;20154;-72
2023/06/13 07:40:23;;;;;;;10.60;3.10;;;20.20;78.80;;;;;;4952116;29;20416;-73
2023/06/13 07:42:49;;;;;;;5.68;3.50;;;20.30;78.40;;;;;;4953232;29;20056;-73
2023/06/13 07:45:15;;;;;;;6.90;2.97;;;20.40;78.80;;;;;;4951766;29;20380;-72
2023/06/13 07:47:40;;;;;;;7.13;2.88;;;20.40;78.50;;;;;;4950188;29;20488;-72
2023/06/13 07:50:07;;;;;;;7.53;3.03;;;20.50;78.30;;;;;;4946663;29;20027;-73
2023/06/13 07:52:32;;;;;;;5.85;2.85;;;20.60;77.60;;;;;;4951166;29;20369;-70
2023/06/13 07:54:58;;;;;;;5.38;3.20;;;20.60;77.30;;;;;;4934169;29;20144;-75
2023/06/13 07:57:24;;;;;;;4.85;2.92;;;20.70;76.40;;;;;;4952393;29;20474;-72
2023/06/13 07:59:50;;;;;;;7.38;3.38;;;20.80;76.30;;;;;;4952132;29;20042;-72
2023/06/13 08:02:15;;;;;;;11.20;3.33;;;20.80;75.70;;;;;;4951540;28;20039;-72
2023/06/13 08:04:41;;;;;;;5.82;3.08;;;20.90;75.70;;;;;;4943211;29;20098;-72
2023/06/13 08:07:07;;;;;;;7.20;3.35;;;20.80;75.60;;;;;;4951351;29;20023;-71
2023/06/13 08:09:33;;;;;;;3.65;2.67;;;20.80;75.60;;;;;;4951917;29;20054;-71
2023/06/13 08:11:58;;;;;;;13.20;3.03;;;20.90;76.10;;;;;;4952698;29;20035;-74
2023/06/13 08:14:24;;;;;;;12.07;3.00;;;21.00;75.30;;;;;;4951626;29;20039;-65
2023/06/13 08:16:50;;;;;;;6.18;3.03;;;21.20;75.70;;;;;;4946831;29;20034;-65
2023/06/13 08:19:15;;;;;;;5.55;2.80;;;21.50;75.60;;;;;;4951655;29;20106;-66
2023/06/13 08:21:41;;;;;;;5.72;2.60;;;21.60;74.40;;;;;;4951867;29;20027;-65
2023/06/13 08:24:07;;;;;;;4.10;3.20;;;21.80;75.40;;;;;;4951301;29;20037;-65
2023/06/13 08:26:33;;;;;;;6.30;2.90;;;21.80;75.00;;;;;;4951921;29;20024;-65
2023/06/13 08:29:02;;;;;;;4.20;3.08;;;21.80;75.00;;;;;;4951973;29;20035;-65
2023/06/13 08:31:31;;;;;;;7.13;3.70;;;22.00;75.20;;;;;;4943675;29;20027;-65
2023/06/13 08:33:58;;;;;;;11.98;3.38;;;22.00;74.70;;;;;;4945949;29;20709;-65
2023/06/13 08:36:25;;;;;;;5.70;3.33;;;22.00;74.60;;;;;;4945812;29;20043;-65
2023/06/13 08:38:51;;;;;;;16.02;3.05;;;22.00;74.70;;;;;;4951974;29;20046;-65
2023/06/13 08:41:17;;;;;;;14.70;3.60;;;21.90;75.70;;;;;;4945796;29;20038;-65
2023/06/13 08:43:43;;;;;;;4.18;3.10;;;21.90;75.10;;;;;;4944790;29;20027;-65
2023/06/13 08:46:10;;;;;;;4.78;2.80;;;21.90;74.50;;;;;;4947088;29;20121;-66
2023/06/13 08:48:36;;;;;;;7.80;3.25;;;22.00;73.70;;;;;;4951774;29;20071;-65
2023/06/13 08:51:04;;;;;;;7.63;2.80;;;22.00;73.40;;;;;;4951600;29;20066;-66
2023/06/13 08:53:32;;;;;;;13.98;3.55;;;22.10;72.70;;;;;;4950161;29;20054;-65
2023/06/13 08:56:04;;;;;;;5.93;3.00;;;22.00;73.50;;;;;;4951352;29;20134;-65
2023/06/13 08:58:35;;;;;;;5.32;3.30;;;22.00;73.20;;;;;;4952200;29;20031;-65
2023/06/13 09:01:02;;;;;;;8.05;3.05;;;22.10;73.20;;;;;;4951601;29;20059;-66
2023/06/13 09:03:29;;;;;;;5.38;3.05;;;22.10;73.30;;;;;;4943592;29;20054;-65
2023/06/13 09:05:55;;;;;;;6.50;3.10;;;22.10;73.40;;;;;;4946289;29;20047;-65
2023/06/13 09:08:22;;;;;;;8.80;3.25;;;22.30;72.80;;;;;;4952163;29;20032;-65
2023/06/13 09:10:49;;;;;;;6.90;2.75;;;22.50;71.90;;;;;;4952424;29;20027;-65
2023/06/13 09:13:16;;;;;;;5.68;3.47;;;22.70;72.10;;;;;;4951115;29;20038;-65
2023/06/13 09:15:42;;;;;;;4.20;3.00;;;22.90;71.80;;;;;;4954588;28;20043;-65
2023/06/13 09:18:09;;;;;;;4.57;3.40;;;23.10;71.60;;;;;;4954840;29;20053;-65
2023/06/13 09:20:35;;;;;;;5.75;3.15;;;23.10;72.10;;;;;;4955223;29;20034;-65
2023/06/13 09:23:02;;;;;;;5.13;3.60;;;23.10;72.30;;;;;;4955479;29;20100;-65
2023/06/13 09:25:31;;;;;;;13.10;3.60;;;23.10;72.70;;;;;;4954861;29;20428;-65
2023/06/13 09:27:56;;;;;;;4.40;3.20;;;23.20;72.00;;;;;;4955606;29;20035;-64
2023/06/13 09:30:22;;;;;;;4.65;3.03;;;23.10;71.50;;;;;;4954352;29;20110;-65
2023/06/13 09:32:51;;;;;;;4.78;3.30;;;23.20;71.20;;;;;;4953256;29;20082;-64
2023/06/13 09:35:17;;;;;;;5.50;3.40;;;23.10;70.40;;;;;;4954131;29;20042;-66
2023/06/13 09:37:44;;;;;;;3.97;3.40;;;23.20;69.80;;;;;;4955274;29;20079;-65
2023/06/13 09:40:10;;;;;;;5.32;2.90;;;23.20;70.30;;;;;;4954076;29;20102;-65
2023/06/13 09:42:36;;;;;;;8.13;3.67;;;23.30;69.60;;;;;;4954966;29;20559;-65
2023/06/13 09:45:08;;;;;;;6.78;3.08;;;23.40;69.60;;;;;;4954861;29;20039;-65
2023/06/13 09:47:34;;;;;;;7.45;3.38;;;23.50;71.30;;;;;;4955081;29;20027;-65
2023/06/13 09:50:01;;;;;;;8.48;3.35;;;23.70;74.50;;;;;;4948415;29;20024;-64
2023/06/13 09:52:30;;;;;;;5.38;3.40;;;23.70;74.60;;;;;;4952079;29;20031;-63
2023/06/13 09:54:56;;;;;;;5.82;3.05;;;23.70;74.80;;;;;;4954138;29;20472;-64
2023/06/13 09:57:23;;;;;;;16.30;2.90;;;23.90;74.30;;;;;;4954357;29;20094;-63
2023/06/13 09:59:50;;;;;;;14.02;3.13;;;23.80;73.90;;;;;;4954113;29;20114;-63
2023/06/13 10:02:22;;;;;;;4.70;2.83;;;23.90;73.40;;;;;;4944988;29;20028;-64
2023/06/13 10:04:54;;;;;;;7.90;3.22;;;24.00;72.80;;;;;;4953488;29;20062;-64
2023/06/13 10:07:20;;;;;;;8.30;3.30;;;24.00;72.80;;;;;;4954230;29;20032;-63
2023/06/13 10:09:46;;;;;;;4.53;3.63;;;24.20;76.80;;;;;;4953902;29;20407;-63
2023/06/13 10:12:18;;;;;;;8.05;2.88;;;24.30;78.20;;;;;;4953915;29;20035;-63
2023/06/13 10:14:50;;;;;;;8.80;3.28;;;24.30;78.50;;;;;;4942342;29;20062;-63
2023/06/13 10:17:18;;;;;;;6.68;2.88;;;24.40;78.30;;;;;;4953977;29;20058;-64
2023/06/13 10:19:47;;;;;;;6.07;3.35;;;24.40;78.40;;;;;;4953592;29;20449;-64
2023/06/13 10:22:13;;;;;;;4.32;3.30;;;24.50;78.30;;;;;;4953877;29;20020;-63
2023/06/13 10:24:40;;;;;;;4.65;3.30;;;24.50;79.30;;;;;;4954000;29;20086;-64
2023/06/13 10:27:08;;;;;;;4.57;2.78;;;24.60;80.40;;;;;;4953674;28;20102;-64
2023/06/13 10:29:53;;;;;;;4.95;3.03;;;24.30;80.90;;;;;;4953955;29;20027;-64
2023/06/13 10:32:37;;;;;;;10.27;3.33;;;24.40;80.30;;;;;;4951467;29;20034;-64
2023/06/13 10:35:16;;;;;;;6.47;2.97;;;24.50;80.50;;;;;;4953740;29;20039;-64
2023/06/13 10:38:14;;;;;;;6.03;3.17;;;24.70;83.40;;;;;;4954489;29;20030;-69
2023/06/13 10:41:14;;;;;;;4.15;3.15;;;24.80;82.40;;;;;;4953687;29;20023;-63
2023/06/13 10:43:43;;;;;;;;;;;24.90;82.10;;;;;;4954228;29;20038;-64
2023/06/13 10:46:09;;;;;;;8.00;3.20;;;25.00;81.70;;;;;;4953727;29;19914;-63
2023/06/13 10:48:36;;;;;;;6.53;3.88;;;25.00;82.70;;;;;;4953822;29;20030;-63
2023/06/13 10:51:02;;;;;;;4.22;3.13;;;24.80;83.00;;;;;;4953747;29;20052;-63
2023/06/13 10:53:27;;;;;;;5.53;3.03;;;24.70;83.70;;;;;;4952915;29;20137;-63
2023/06/13 10:56:01;;;;;;;8.50;3.00;;;24.70;82.70;;;;;;4953110;29;20062;-63
2023/06/13 10:58:27;;;;;;;3.83;3.42;;;24.70;83.00;;;;;;4953231;29;20034;-62
2023/06/13 11:00:53;;;;;;;6.18;3.10;;;24.80;75.70;;;;;;4935766;29;20404;-63
2023/06/13 11:03:19;;;;;;;7.80;3.10;;;25.10;81.80;;;;;;4944595;29;20023;-63
2023/06/13 11:05:44;;;;;;;4.80;3.30;;;25.30;80.10;;;;;;4953741;29;20058;-63
2023/06/13 11:08:14;;;;;;;8.15;3.53;;;25.40;79.10;;;;;;4953597;29;20078;-64
2023/06/13 11:10:45;;;;;;;4.70;3.05;;;25.40;79.50;;;;;;4953780;29;20035;-63
2023/06/13 11:13:23;;;;;;;7.25;3.50;;;25.40;52.90;;;;;;4954306;29;20051;-63
2023/06/13 11:15:53;;;;;;;9.23;3.40;;;25.50;78.50;;;;;;4953812;29;20043;-63
2023/06/13 11:18:18;;;;;;;4.15;2.65;;;25.60;77.40;;;;;;4953470;29;20019;-63
2023/06/13 11:20:50;;;;;;;6.32;2.90;;;;;;;;;;4953038;29;20472;-62
2023/06/13 11:23:20;;;;;;;3.75;3.10;;;;;;;;;;4952688;29;20054;-63
2023/06/13 11:25:48;;;;;;;4.60;3.80;;;;;;;;;;4952879;29;20031;-63
2023/06/13 11:28:15;;;;;;;5.18;2.78;;;;;;;;;;4952769;29;20023;-64
2023/06/13 11:30:44;;;;;;;5.47;3.08;;;;;;;;;;4952726;29;20376;-63
2023/06/13 11:33:11;;;;;;;5.88;3.13;;;;;;;;;;4952711;29;20074;-65
2023/06/13 11:35:39;;;;;;;3.90;2.92;;;;;;;;;;4952337;29;20035;-64
2023/06/13 11:38:09;;;;;;;6.43;3.33;;;;;;;;;;4952494;28;20107;-63
2023/06/13 11:40:42;;;;;;;5.20;3.15;;;;;;;;;;4934505;29;20384;-64
2023/06/13 11:43:09;;;;;;;4.78;3.20;;;;;;;;;;4953064;29;20019;-66
2023/06/13 11:45:37;;;;;;;6.40;3.38;;;;;;;;;;4952708;29;20482;-63
2023/06/13 11:48:03;;;;;;;9.27;3.33;;;;;;;;;;4952867;29;20107;-63
2023/06/13 11:50:32;;;;;;;6.85;3.25;;;;;;;;;;4951162;29;20019;-63
2023/06/13 11:53:03;;;;;;;11.80;3.45;;;26.30;87.70;;;;;;4952583;29;20024;-64
2023/06/13 11:55:29;;;;;;;4.00;3.13;;;26.60;84.70;;;;;;4951318;29;20078;-64
2023/06/13 11:57:56;;;;;;;8.05;3.72;;;26.70;83.10;;;;;;4952878;29;20066;-64
2023/06/13 12:00:26;;;;;;;7.22;3.30;;;26.70;72.90;;;;;;4951381;29;20082;-64
2023/06/13 12:02:52;;;;;;;5.95;3.28;;;26.80;63.00;;;;;;4952806;29;20074;-63
2023/06/13 12:05:18;;;;;;;4.35;3.35;;;26.90;66.20;;;;;;4951577;29;20062;-62
2023/06/13 12:07:45;;;;;;;4.32;3.30;;;27.10;65.60;;;;;;4952469;29;20067;-62
2023/06/13 12:10:13;;;;;;;5.65;3.20;;;27.30;74.30;;;;;;4951540;29;20031;-65
2023/06/13 12:12:38;;;;;;;7.57;3.42;;;27.50;69.30;;;;;;4952645;29;20063;-63
2023/06/13 12:15:07;;;;;;;5.85;3.13;;;27.60;70.30;;;;;;4952275;29;20078;-64
2023/06/13 12:17:32;;;;;;;3.83;3.10;;;27.50;70.00;;;;;;4952230;29;20035;-63
2023/06/13 12:20:10;;;;;;;4.47;3.30;;;27.40;71.40;;;;;;4952068;29;20061;-64
2023/06/13 12:22:36;;;;;;;5.07;3.20;;;27.50;72.00;;;;;;4952534;29;20400;-64
2023/06/13 12:25:01;;;;;;;6.05;3.22;;;27.70;75.80;;;;;;4951858;29;20039;-63
2023/06/13 12:27:27;;;;;;;6.50;3.15;;;27.80;76.70;;;;;;4947518;29;20090;-64
2023/06/13 12:29:54;;;;;;;6.43;3.90;;;27.90;76.40;;;;;;4951782;29;20042;-63
2023/06/13 12:32:25;;;;;;;5.57;3.28;;;28.00;74.90;;;;;;4951526;29;20155;-63
2023/06/13 12:34:51;;;;;;;7.85;3.65;;;28.10;74.10;;;;;;4951723;29;20610;-64
2023/06/13 12:37:17;;;;;;;3.95;3.55;;;28.00;73.60;;;;;;4951600;29;20102;-64
2023/06/13 12:40:12;;;;;;;5.88;3.42;;;28.10;74.40;;;;;;4951814;29;20726;-63
2023/06/13 12:42:42;;;;;;;3.72;3.30;;;27.90;73.10;;;;;;4952043;29;20118;-63
2023/06/13 12:45:10;;;;;;;;;;;27.70;74.80;;;;;;4951697;29;20039;-65
2023/06/13 12:47:36;;;;;;;6.80;3.60;;;27.60;74.00;;;;;;4952739;29;19913;-63
2023/06/13 12:50:10;;;;;;;5.20;3.75;;;27.80;74.70;;;;;;4951460;28;20027;-64
2023/06/13 12:52:36;;;;;;;10.18;3.38;;;27.80;74.20;;;;;;4951238;29;20062;-64
2023/06/13 12:55:03;;;;;;;5.22;3.75;;;28.00;74.20;;;;;;4950627;29;20043;-64
2023/06/13 12:57:29;;;;;;;6.55;3.53;;;28.00;74.70;;;;;;4951551;29;20019;-65
2023/06/13 12:59:56;;;;;;;8.35;3.38;;;27.90;75.40;;;;;;4951283;29;20041;-63
2023/06/13 13:02:24;;;;;;;9.23;3.58;;;27.90;78.10;;;;;;4951245;29;20027;-63
2023/06/13 13:05:00;;;;;;;4.97;3.85;;;28.10;77.90;;;;;;4951450;29;20027;-63
2023/06/13 13:07:28;;;;;;;4.03;3.60;;;28.30;72.20;;;;;;4951444;29;20487;-63
2023/06/13 13:09:54;;;;;;;6.95;3.45;;;28.40;48.50;;;;;;4951432;29;20189;-63
2023/06/13 13:12:20;;;;;;;6.10;3.60;;;28.30;48.40;;;;;;4951340;29;20027;-63
2023/06/13 13:14:45;;;;;;;5.38;3.50;;;28.40;47.40;;;;;;4951172;29;20385;-63
2023/06/13 13:17:11;;;;;;;5.32;3.75;;;28.50;47.50;;;;;;4951756;29;20027;-65
2023/06/13 13:19:37;;;;;;;7.13;3.78;;;28.60;47.70;;;;;;4950947;29;20031;-62
2023/06/13 13:22:03;;;;;;;9.63;3.95;;;28.70;48.00;;;;;;4951547;29;20689;-64
2023/06/13 13:24:29;;;;;;;10.82;4.35;;;28.90;53.40;;;;;;4950845;29;20046;-63
2023/06/13 13:26:55;;;;;;;4.53;3.70;;;28.90;47.70;;;;;;4947451;29;20031;-63